sensor_id;sensor_type;location;lat;lon;timestamp;temperature;humidity
39103;DHT22;24847;48.218;16.414;2023-03-24T00:04:50;14.10;99.90
39103;DHT22;24847;48.218;16.414;2023-03-24T00:10:15;14.00;99.90
39103;DHT22;24847;48.218;16.414;2023-03-24T00:15:38;14.20;99.90
39103;DHT22;24847;48.218;16.414;2023-03-24T00:21:03;14.10;99.90
39103;DHT22;24847;48.218;16.414;2023-03-24T00:26:26;14.00;99.90
39103;DHT22;24847;48.218;16.414;2023-03-24T00:31:49;13.40;99.90
39103;DHT22;24847;48.218;16.414;2023-03-24T00:37:14;13.30;99.90
39103;DHT22;24847;48.218;16.414;2023-03-24T00:42:36;13.40;99.90
39103;DHT22;24847;48.218;16.414;2023-03-24T00:47:59;13.40;99.90
39103;DHT22;24847;48.218;16.414;2023-03-24T00:53:23;13.20;99.90
39103;DHT22;24847;48.218;16.414;2023-03-24T00:58:49;12.90;99.90
39103;DHT22;24847;48.218;16.414;2023-03-24T01:04:12;12.70;99.90
39103;DHT22;24847;48.218;16.414;2023-03-24T01:09:36;13.00;99.90
39103;DHT22;24847;48.218;16.414;2023-03-24T01:15:00;13.40;99.90
39103;DHT22;24847;48.218;16.414;2023-03-24T01:20:25;13.70;99.90
39103;DHT22;24847;48.218;16.414;2023-03-24T01:25:50;13.50;99.90
39103;DHT22;24847;48.218;16.414;2023-03-24T01:31:14;13.20;99.90
39103;DHT22;24847;48.218;16.414;2023-03-24T01:36:36;13.00;99.90
39103;DHT22;24847;48.218;16.414;2023-03-24T01:42:00;13.30;99.90
39103;DHT22;24847;48.218;16.414;2023-03-24T01:47:23;13.10;99.90
39103;DHT22;24847;48.218;16.414;2023-03-24T01:52:45;13.00;99.90
39103;DHT22;24847;48.218;16.414;2023-03-24T01:58:09;13.10;99.90
39103;DHT22;24847;48.218;16.414;2023-03-24T02:03:33;13.00;99.90
39103;DHT22;24847;48.218;16.414;2023-03-24T02:08:59;12.90;99.90
39103;DHT22;24847;48.218;16.414;2023-03-24T02:14:23;12.70;99.90
39103;DHT22;24847;48.218;16.414;2023-03-24T02:20:17;12.60;99.90
39103;DHT22;24847;48.218;16.414;2023-03-24T02:32:28;12.70;99.90
39103;DHT22;24847;48.218;16.414;2023-03-24T02:38:56;12.90;99.90
39103;DHT22;24847;48.218;16.414;2023-03-24T02:44:44;12.50;99.90
39103;DHT22;24847;48.218;16.414;2023-03-24T02:50:16;12.20;99.90
39103;DHT22;24847;48.218;16.414;2023-03-24T02:55:45;12.10;99.90
39103;DHT22;24847;48.218;16.414;2023-03-24T03:01:14;12.30;99.90
39103;DHT22;24847;48.218;16.414;2023-03-24T03:06:43;12.70;99.90
39103;DHT22;24847;48.218;16.414;2023-03-24T03:12:10;13.00;99.90
39103;DHT22;24847;48.218;16.414;2023-03-24T03:17:37;13.20;99.90
39103;DHT22;24847;48.218;16.414;2023-03-24T03:23:06;13.10;99.90
39103;DHT22;24847;48.218;16.414;2023-03-24T03:28:34;13.10;99.90
39103;DHT22;24847;48.218;16.414;2023-03-24T03:34:06;13.20;99.90
39103;DHT22;24847;48.218;16.414;2023-03-24T03:39:33;12.50;99.90
39103;DHT22;24847;48.218;16.414;2023-03-24T03:44:59;12.20;99.90
39103;DHT22;24847;48.218;16.414;2023-03-24T03:50:22;12.10;99.90
39103;DHT22;24847;48.218;16.414;2023-03-24T03:55:44;12.10;99.90
39103;DHT22;24847;48.218;16.414;2023-03-24T04:01:10;11.90;99.90
39103;DHT22;24847;48.218;16.414;2023-03-24T04:06:38;12.00;99.90
39103;DHT22;24847;48.218;16.414;2023-03-24T04:12:17;12.00;99.90
39103;DHT22;24847;48.218;16.414;2023-03-24T04:17:58;12.00;99.90
39103;DHT22;24847;48.218;16.414;2023-03-24T04:23:46;11.70;99.90
39103;DHT22;24847;48.218;16.414;2023-03-24T04:29:17;12.00;99.90
39103;DHT22;24847;48.218;16.414;2023-03-24T04:34:45;12.10;99.90
39103;DHT22;24847;48.218;16.414;2023-03-24T04:40:12;12.20;99.90
39103;DHT22;24847;48.218;16.414;2023-03-24T04:45:37;12.30;99.90
39103;DHT22;24847;48.218;16.414;2023-03-24T04:51:03;12.30;99.90
39103;DHT22;24847;48.218;16.414;2023-03-24T04:56:29;12.20;99.90
39103;DHT22;24847;48.218;16.414;2023-03-24T05:02:00;12.10;99.90
39103;DHT22;24847;48.218;16.414;2023-03-24T05:07:23;12.30;99.90
39103;DHT22;24847;48.218;16.414;2023-03-24T05:12:47;12.20;99.90
39103;DHT22;24847;48.218;16.414;2023-03-24T05:18:09;12.20;99.90
39103;DHT22;24847;48.218;16.414;2023-03-24T05:23:33;12.30;99.90
39103;DHT22;24847;48.218;16.414;2023-03-24T05:28:55;12.30;99.90
39103;DHT22;24847;48.218;16.414;2023-03-24T05:34:18;12.30;99.90
39103;DHT22;24847;48.218;16.414;2023-03-24T05:39:43;12.20;99.90
39103;DHT22;24847;48.218;16.414;2023-03-24T05:45:07;12.00;99.90
39103;DHT22;24847;48.218;16.414;2023-03-24T05:50:31;12.00;99.90
39103;DHT22;24847;48.218;16.414;2023-03-24T05:55:55;12.00;99.90
39103;DHT22;24847;48.218;16.414;2023-03-24T06:01:20;12.10;99.90
39103;DHT22;24847;48.218;16.414;2023-03-24T06:06:42;12.00;99.90
39103;DHT22;24847;48.218;16.414;2023-03-24T06:12:07;12.20;99.90
39103;DHT22;24847;48.218;16.414;2023-03-24T06:17:30;12.10;99.90
39103;DHT22;24847;48.218;16.414;2023-03-24T06:22:53;12.20;99.90
39103;DHT22;24847;48.218;16.414;2023-03-24T06:28:20;12.30;99.90
39103;DHT22;24847;48.218;16.414;2023-03-24T06:33:46;12.50;99.90
39103;DHT22;24847;48.218;16.414;2023-03-24T06:39:08;12.40;99.90
39103;DHT22;24847;48.218;16.414;2023-03-24T06:44:32;12.50;99.90
39103;DHT22;24847;48.218;16.414;2023-03-24T06:49:55;12.50;99.90
39103;DHT22;24847;48.218;16.414;2023-03-24T06:55:18;12.70;99.90
39103;DHT22;24847;48.218;16.414;2023-03-24T07:00:43;12.70;99.90
39103;DHT22;24847;48.218;16.414;2023-03-24T07:06:07;13.30;99.90
39103;DHT22;24847;48.218;16.414;2023-03-24T07:11:30;13.40;99.90
39103;DHT22;24847;48.218;16.414;2023-03-24T07:16:54;13.30;99.90
39103;DHT22;24847;48.218;16.414;2023-03-24T07:22:16;13.50;99.90
39103;DHT22;24847;48.218;16.414;2023-03-24T07:27:39;13.50;99.90
39103;DHT22;24847;48.218;16.414;2023-03-24T07:33:05;13.50;99.90
39103;DHT22;24847;48.218;16.414;2023-03-24T07:38:30;13.80;99.90
39103;DHT22;24847;48.218;16.414;2023-03-24T07:43:52;13.80;99.90
39103;DHT22;24847;48.218;16.414;2023-03-24T07:49:16;14.00;99.90
39103;DHT22;24847;48.218;16.414;2023-03-24T07:54:38;14.10;99.90
39103;DHT22;24847;48.218;16.414;2023-03-24T08:00:01;14.00;99.90
39103;DHT22;24847;48.218;16.414;2023-03-24T08:05:31;14.20;99.90
39103;DHT22;24847;48.218;16.414;2023-03-24T08:10:54;14.10;99.90
39103;DHT22;24847;48.218;16.414;2023-03-24T08:16:16;14.10;99.90
39103;DHT22;24847;48.218;16.414;2023-03-24T08:21:40;14.20;99.90
39103;DHT22;24847;48.218;16.414;2023-03-24T08:27:03;14.20;99.90
39103;DHT22;24847;48.218;16.414;2023-03-24T08:32:28;14.20;99.90
39103;DHT22;24847;48.218;16.414;2023-03-24T08:37:52;14.20;99.90
39103;DHT22;24847;48.218;16.414;2023-03-24T08:43:15;14.20;99.90
39103;DHT22;24847;48.218;16.414;2023-03-24T08:48:37;14.60;99.90
39103;DHT22;24847;48.218;16.414;2023-03-24T08:54:02;14.50;99.90
39103;DHT22;24847;48.218;16.414;2023-03-24T08:59:26;14.60;99.90
39103;DHT22;24847;48.218;16.414;2023-03-24T09:04:49;14.40;99.90
39103;DHT22;24847;48.218;16.414;2023-03-24T09:10:16;14.40;99.90
39103;DHT22;24847;48.218;16.414;2023-03-24T09:15:44;14.70;99.90
39103;DHT22;24847;48.218;16.414;2023-03-24T09:21:08;15.20;99.90
39103;DHT22;24847;48.218;16.414;2023-03-24T09:26:32;15.20;99.90
39103;DHT22;24847;48.218;16.414;2023-03-24T09:31:55;15.80;99.90
39103;DHT22;24847;48.218;16.414;2023-03-24T09:37:18;16.10;99.90
39103;DHT22;24847;48.218;16.414;2023-03-24T09:42:42;16.90;99.90
39103;DHT22;24847;48.218;16.414;2023-03-24T09:48:10;16.70;99.90
39103;DHT22;24847;48.218;16.414;2023-03-24T09:53:38;16.80;99.90
39103;DHT22;24847;48.218;16.414;2023-03-24T09:59:10;16.30;99.90
39103;DHT22;24847;48.218;16.414;2023-03-24T10:04:36;16.30;99.90
39103;DHT22;24847;48.218;16.414;2023-03-24T10:09:59;16.60;99.90
39103;DHT22;24847;48.218;16.414;2023-03-24T10:15:31;16.90;99.90
39103;DHT22;24847;48.218;16.414;2023-03-24T10:20:59;16.90;99.90
39103;DHT22;24847;48.218;16.414;2023-03-24T10:26:34;16.80;99.90
39103;DHT22;24847;48.218;16.414;2023-03-24T10:32:04;17.10;99.90
39103;DHT22;24847;48.218;16.414;2023-03-24T10:37:29;17.20;99.90
39103;DHT22;24847;48.218;16.414;2023-03-24T10:42:52;17.40;99.90
39103;DHT22;24847;48.218;16.414;2023-03-24T10:48:33;17.30;99.90
39103;DHT22;24847;48.218;16.414;2023-03-24T10:54:10;17.60;99.90
39103;DHT22;24847;48.218;16.414;2023-03-24T10:59:38;17.60;99.90
39103;DHT22;24847;48.218;16.414;2023-03-24T11:05:18;18.20;99.90
39103;DHT22;24847;48.218;16.414;2023-03-24T11:10:42;17.90;99.90
39103;DHT22;24847;48.218;16.414;2023-03-24T11:16:10;17.30;99.90
39103;DHT22;24847;48.218;16.414;2023-03-24T11:21:36;17.40;99.90
39103;DHT22;24847;48.218;16.414;2023-03-24T11:27:00;17.50;99.90
39103;DHT22;24847;48.218;16.414;2023-03-24T11:32:25;17.90;99.90
39103;DHT22;24847;48.218;16.414;2023-03-24T11:37:51;17.30;99.90
39103;DHT22;24847;48.218;16.414;2023-03-24T11:43:19;17.40;99.90
39103;DHT22;24847;48.218;16.414;2023-03-24T11:48:47;17.80;99.90
39103;DHT22;24847;48.218;16.414;2023-03-24T11:54:16;17.90;99.90
39103;DHT22;24847;48.218;16.414;2023-03-24T11:59:44;18.00;99.90
39103;DHT22;24847;48.218;16.414;2023-03-24T12:05:20;17.70;99.90
39103;DHT22;24847;48.218;16.414;2023-03-24T12:10:59;17.90;99.90
39103;DHT22;24847;48.218;16.414;2023-03-24T12:16:42;18.10;99.90
39103;DHT22;24847;48.218;16.414;2023-03-24T12:22:18;18.40;99.90
39103;DHT22;24847;48.218;16.414;2023-03-24T12:27:52;18.60;99.90
39103;DHT22;24847;48.218;16.414;2023-03-24T12:33:33;18.60;99.90
39103;DHT22;24847;48.218;16.414;2023-03-24T12:39:07;18.20;99.90
39103;DHT22;24847;48.218;16.414;2023-03-24T12:50:45;18.60;99.90
39103;DHT22;24847;48.218;16.414;2023-03-24T12:56:16;18.90;99.90
39103;DHT22;24847;48.218;16.414;2023-03-24T13:01:43;19.00;99.90
39103;DHT22;24847;48.218;16.414;2023-03-24T13:07:09;18.70;99.90
39103;DHT22;24847;48.218;16.414;2023-03-24T13:12:39;18.90;99.90
39103;DHT22;24847;48.218;16.414;2023-03-24T13:18:16;18.90;99.90
39103;DHT22;24847;48.218;16.414;2023-03-24T13:23:46;18.80;99.90
39103;DHT22;24847;48.218;16.414;2023-03-24T13:29:28;18.70;99.90
39103;DHT22;24847;48.218;16.414;2023-03-24T13:35:13;18.70;99.90
39103;DHT22;24847;48.218;16.414;2023-03-24T13:40:40;18.70;99.90
39103;DHT22;24847;48.218;16.414;2023-03-24T13:46:04;18.80;99.90
39103;DHT22;24847;48.218;16.414;2023-03-24T13:51:33;18.80;99.90
39103;DHT22;24847;48.218;16.414;2023-03-24T13:57:03;19.00;99.90
39103;DHT22;24847;48.218;16.414;2023-03-24T14:02:43;18.90;99.90
39103;DHT22;24847;48.218;16.414;2023-03-24T14:08:13;19.10;99.90
39103;DHT22;24847;48.218;16.414;2023-03-24T14:13:45;19.00;99.90
39103;DHT22;24847;48.218;16.414;2023-03-24T14:19:20;18.90;99.90
39103;DHT22;24847;48.218;16.414;2023-03-24T14:24:53;19.00;99.90
39103;DHT22;24847;48.218;16.414;2023-03-24T14:30:21;18.90;99.90
39103;DHT22;24847;48.218;16.414;2023-03-24T14:35:45;18.80;99.90
39103;DHT22;24847;48.218;16.414;2023-03-24T14:41:14;18.70;99.90
39103;DHT22;24847;48.218;16.414;2023-03-24T14:46:44;18.90;99.90
39103;DHT22;24847;48.218;16.414;2023-03-24T14:52:12;18.80;99.90
39103;DHT22;24847;48.218;16.414;2023-03-24T14:57:41;18.90;99.90
39103;DHT22;24847;48.218;16.414;2023-03-24T15:03:14;18.80;99.90
39103;DHT22;24847;48.218;16.414;2023-03-24T15:08:44;18.60;99.90
39103;DHT22;24847;48.218;16.414;2023-03-24T15:14:17;18.40;99.90
39103;DHT22;24847;48.218;16.414;2023-03-24T15:19:42;18.30;99.90
39103;DHT22;24847;48.218;16.414;2023-03-24T15:25:07;18.10;99.90
39103;DHT22;24847;48.218;16.414;2023-03-24T15:30:33;18.10;99.90
39103;DHT22;24847;48.218;16.414;2023-03-24T15:35:58;18.00;99.90
39103;DHT22;24847;48.218;16.414;2023-03-24T15:41:22;18.00;99.90
39103;DHT22;24847;48.218;16.414;2023-03-24T15:46:46;17.50;99.90
39103;DHT22;24847;48.218;16.414;2023-03-24T15:52:25;16.90;99.90
39103;DHT22;24847;48.218;16.414;2023-03-24T15:57:49;16.30;99.90
39103;DHT22;24847;48.218;16.414;2023-03-24T16:03:13;16.20;99.90
39103;DHT22;24847;48.218;16.414;2023-03-24T16:08:37;15.80;99.90
39103;DHT22;24847;48.218;16.414;2023-03-24T16:14:01;16.10;99.90
39103;DHT22;24847;48.218;16.414;2023-03-24T16:19:36;15.60;99.90
39103;DHT22;24847;48.218;16.414;2023-03-24T16:24:59;16.00;99.90
39103;DHT22;24847;48.218;16.414;2023-03-24T16:30:23;15.80;99.90
39103;DHT22;24847;48.218;16.414;2023-03-24T16:35:48;15.90;99.90
39103;DHT22;24847;48.218;16.414;2023-03-24T16:41:11;15.80;99.90
39103;DHT22;24847;48.218;16.414;2023-03-24T16:46:34;15.80;99.90
39103;DHT22;24847;48.218;16.414;2023-03-24T16:51:58;15.80;99.90
39103;DHT22;24847;48.218;16.414;2023-03-24T16:57:21;15.60;99.90
39103;DHT22;24847;48.218;16.414;2023-03-24T17:02:43;15.70;99.90
39103;DHT22;24847;48.218;16.414;2023-03-24T17:08:09;15.70;99.90
39103;DHT22;24847;48.218;16.414;2023-03-24T17:13:33;15.70;99.90
39103;DHT22;24847;48.218;16.414;2023-03-24T17:18:56;15.40;99.90
39103;DHT22;24847;48.218;16.414;2023-03-24T17:24:20;15.20;99.90
39103;DHT22;24847;48.218;16.414;2023-03-24T17:29:44;15.20;99.90
39103;DHT22;24847;48.218;16.414;2023-03-24T17:35:09;15.30;99.90
39103;DHT22;24847;48.218;16.414;2023-03-24T17:40:34;15.30;99.90
39103;DHT22;24847;48.218;16.414;2023-03-24T17:45:57;15.20;99.90
39103;DHT22;24847;48.218;16.414;2023-03-24T17:51:21;15.00;99.90
39103;DHT22;24847;48.218;16.414;2023-03-24T17:56:47;15.40;99.90
39103;DHT22;24847;48.218;16.414;2023-03-24T18:02:11;15.20;99.90
39103;DHT22;24847;48.218;16.414;2023-03-24T18:07:35;15.30;99.90
39103;DHT22;24847;48.218;16.414;2023-03-24T18:12:59;15.40;99.90
39103;DHT22;24847;48.218;16.414;2023-03-24T18:18:23;15.40;99.90
39103;DHT22;24847;48.218;16.414;2023-03-24T18:23:46;15.20;99.90
39103;DHT22;24847;48.218;16.414;2023-03-24T18:29:11;14.80;99.90
39103;DHT22;24847;48.218;16.414;2023-03-24T18:34:35;14.30;99.90
39103;DHT22;24847;48.218;16.414;2023-03-24T18:40:06;14.70;99.90
39103;DHT22;24847;48.218;16.414;2023-03-24T18:45:31;14.90;99.90
39103;DHT22;24847;48.218;16.414;2023-03-24T18:50:55;14.50;99.90
39103;DHT22;24847;48.218;16.414;2023-03-24T18:56:20;14.60;99.90
39103;DHT22;24847;48.218;16.414;2023-03-24T19:01:49;14.70;99.90
39103;DHT22;24847;48.218;16.414;2023-03-24T19:07:13;14.60;99.90
39103;DHT22;24847;48.218;16.414;2023-03-24T19:12:44;14.30;99.90
39103;DHT22;24847;48.218;16.414;2023-03-24T19:18:16;13.80;99.90
39103;DHT22;24847;48.218;16.414;2023-03-24T19:23:40;13.60;99.90
39103;DHT22;24847;48.218;16.414;2023-03-24T19:29:05;13.70;99.90
39103;DHT22;24847;48.218;16.414;2023-03-24T19:34:30;13.70;99.90
39103;DHT22;24847;48.218;16.414;2023-03-24T19:39:54;13.70;99.90
39103;DHT22;24847;48.218;16.414;2023-03-24T19:45:18;13.70;99.90
39103;DHT22;24847;48.218;16.414;2023-03-24T19:50:44;14.10;99.90
39103;DHT22;24847;48.218;16.414;2023-03-24T19:56:07;14.00;99.90
39103;DHT22;24847;48.218;16.414;2023-03-24T20:01:31;14.10;99.90
39103;DHT22;24847;48.218;16.414;2023-03-24T20:06:58;14.20;99.90
39103;DHT22;24847;48.218;16.414;2023-03-24T20:12:24;14.10;99.90
39103;DHT22;24847;48.218;16.414;2023-03-24T20:17:48;14.00;99.90
39103;DHT22;24847;48.218;16.414;2023-03-24T20:23:14;14.20;99.90
39103;DHT22;24847;48.218;16.414;2023-03-24T20:28:43;14.20;99.90
39103;DHT22;24847;48.218;16.414;2023-03-24T20:34:06;14.30;99.90
39103;DHT22;24847;48.218;16.414;2023-03-24T20:39:33;14.30;99.90
39103;DHT22;24847;48.218;16.414;2023-03-24T20:44:57;14.30;99.90
39103;DHT22;24847;48.218;16.414;2023-03-24T20:50:26;14.30;99.90
39103;DHT22;24847;48.218;16.414;2023-03-24T20:56:04;14.20;99.90
39103;DHT22;24847;48.218;16.414;2023-03-24T21:01:29;14.20;99.90
39103;DHT22;24847;48.218;16.414;2023-03-24T21:06:56;14.20;99.90
39103;DHT22;24847;48.218;16.414;2023-03-24T21:12:20;14.30;99.90
39103;DHT22;24847;48.218;16.414;2023-03-24T21:17:45;14.30;99.90
39103;DHT22;24847;48.218;16.414;2023-03-24T21:23:10;14.30;99.90
39103;DHT22;24847;48.218;16.414;2023-03-24T21:28:38;14.20;99.90
39103;DHT22;24847;48.218;16.414;2023-03-24T21:34:01;14.00;99.90
39103;DHT22;24847;48.218;16.414;2023-03-24T21:39:27;14.10;99.90
39103;DHT22;24847;48.218;16.414;2023-03-24T21:44:51;14.20;99.90
39103;DHT22;24847;48.218;16.414;2023-03-24T21:50:15;13.90;99.90
39103;DHT22;24847;48.218;16.414;2023-03-24T21:55:48;14.10;99.90
39103;DHT22;24847;48.218;16.414;2023-03-24T22:01:13;14.00;99.90
39103;DHT22;24847;48.218;16.414;2023-03-24T22:06:36;14.20;99.90
39103;DHT22;24847;48.218;16.414;2023-03-24T22:11:59;14.20;99.90
39103;DHT22;24847;48.218;16.414;2023-03-24T22:17:23;14.20;99.90
39103;DHT22;24847;48.218;16.414;2023-03-24T22:22:46;14.20;99.90
39103;DHT22;24847;48.218;16.414;2023-03-24T22:28:08;14.20;99.90
39103;DHT22;24847;48.218;16.414;2023-03-24T22:33:33;14.00;99.90
39103;DHT22;24847;48.218;16.414;2023-03-24T22:38:55;13.80;99.90
39103;DHT22;24847;48.218;16.414;2023-03-24T22:44:18;13.60;99.90
39103;DHT22;24847;48.218;16.414;2023-03-24T22:49:42;13.40;99.90
39103;DHT22;24847;48.218;16.414;2023-03-24T22:55:04;13.40;99.90
39103;DHT22;24847;48.218;16.414;2023-03-24T23:00:29;13.40;99.90
39103;DHT22;24847;48.218;16.414;2023-03-24T23:05:53;13.50;99.90
39103;DHT22;24847;48.218;16.414;2023-03-24T23:11:16;13.60;99.90
39103;DHT22;24847;48.218;16.414;2023-03-24T23:16:39;13.60;99.90
39103;DHT22;24847;48.218;16.414;2023-03-24T23:22:04;13.60;99.90
39103;DHT22;24847;48.218;16.414;2023-03-24T23:27:32;13.50;99.90
39103;DHT22;24847;48.218;16.414;2023-03-24T23:32:55;13.40;99.90
39103;DHT22;24847;48.218;16.414;2023-03-24T23:38:19;13.60;99.90
39103;DHT22;24847;48.218;16.414;2023-03-24T23:43:42;13.60;99.90
39103;DHT22;24847;48.218;16.414;2023-03-24T23:49:08;13.30;99.90
39103;DHT22;24847;48.218;16.414;2023-03-24T23:54:32;13.30;99.90
39103;DHT22;24847;48.218;16.414;2023-03-24T23:59:55;13.20;99.90
